Ashmore, Illinois
Current Conditions -  °F | °C
As of 10:53 AM on Saturday 25 Oct 2014 (Local Time) from KMTO Reporting Station
Clear Clear  
Wind Chill: 67°   Ceiling: Unl
Heat Index: 67°   Visibility: 10mi
Dew Point: 59°   Wind: 10mph
Humidity: 76%   Direction: 290°WNW
Pressure: 30.01"   Gusts: NA
Location:  39.53°N, 88.02°W
Report Text: KMTO 251553Z AUTO 29009KT 10SM CLR 19/15 A3001 RMK AO2 SLP159 T01940150
Loading
Personal Weather Stations






























Interactive Weather Map New forecast layout! Learn more

10-Day Weather Forecast

Advertisements
Track Severe Weather on mobile